createdAt,value
2023-03-06T00:00:58.015Z,84.58
2023-03-06T00:03:27.887Z,84.63
2023-03-06T00:05:57.236Z,83.95
2023-03-06T00:08:27.873Z,84.52
2023-03-06T00:10:56.187Z,83.59
2023-03-06T00:13:24.121Z,82.92
2023-03-06T00:15:51.864Z,83.02
2023-03-06T00:18:19.642Z,84.45
2023-03-06T00:20:47.320Z,85.24
2023-03-06T00:23:15.183Z,86.49
2023-03-06T00:25:45.519Z,87.69
2023-03-06T00:28:14.872Z,86.54
2023-03-06T00:30:43.396Z,86.23
2023-03-06T00:33:11.315Z,85.26
2023-03-06T00:35:40.541Z,85.11
2023-03-06T00:38:08.660Z,86.19
2023-03-06T00:40:36.374Z,86.85
2023-03-06T00:43:05.420Z,89.08
2023-03-06T00:45:33.136Z,89.25
2023-03-06T00:48:00.933Z,87.85
2023-03-06T00:50:28.755Z,87.33
2023-03-06T00:52:56.984Z,86.71
2023-03-06T00:55:24.655Z,86.79
2023-03-06T00:57:55.142Z,87.25
2023-03-06T01:00:25.034Z,87.23
2023-03-06T01:02:53.665Z,87.07
2023-03-06T01:05:21.808Z,87.60
2023-03-06T01:07:49.815Z,86.47
2023-03-06T01:10:17.790Z,85.43
2023-03-06T01:12:46.746Z,83.75
2023-03-06T01:15:15.045Z,83.64
2023-03-06T01:17:44.122Z,83.54
2023-03-06T01:20:15.080Z,83.62
2023-03-06T01:22:43.270Z,83.78
2023-03-06T01:25:11.497Z,83.87
2023-03-06T01:27:39.587Z,84.30
2023-03-06T01:30:08.574Z,85.69
2023-03-06T01:32:37.564Z,86.45
2023-03-06T01:35:08.223Z,87.25
2023-03-06T01:37:36.887Z,87.19
2023-03-06T01:40:04.917Z,86.08
2023-03-06T01:42:32.647Z,85.62
2023-03-06T01:45:06.534Z,84.98
2023-03-06T01:47:36.685Z,84.95
2023-03-06T01:50:08.081Z,84.88
2023-03-06T01:52:39.770Z,84.56
2023-03-06T01:55:10.987Z,84.36
2023-03-06T01:57:41.902Z,86.55
2023-03-06T02:00:13.921Z,86.67
2023-03-06T02:02:45.037Z,85.76
2023-03-06T02:05:14.532Z,85.12
2023-03-06T02:07:43.649Z,85.28
2023-03-06T02:10:12.152Z,85.23
2023-03-06T02:12:43.640Z,85.50
2023-03-06T02:15:12.268Z,85.75
2023-03-06T02:17:40.682Z,86.17
2023-03-06T02:20:13.656Z,86.32
2023-03-06T02:22:53.935Z,86.63
2023-03-06T02:25:34.316Z,85.72
2023-03-06T02:28:02.512Z,85.83
2023-03-06T02:30:31.457Z,85.56
2023-03-06T02:32:59.626Z,85.14
2023-03-06T02:35:30.168Z,85.12
2023-03-06T02:38:00.170Z,84.98
2023-03-06T02:40:30.293Z,85.50
2023-03-06T02:42:59.522Z,84.97
2023-03-06T02:45:33.285Z,84.81
2023-03-06T02:48:01.329Z,84.86
2023-03-06T02:50:29.066Z,84.32
2023-03-06T02:52:56.925Z,84.85
2023-03-06T02:55:24.727Z,84.33
2023-03-06T02:57:53.770Z,84.08
2023-03-06T03:00:21.823Z,84.30
2023-03-06T03:02:49.950Z,84.53
2023-03-06T03:05:17.716Z,83.81
2023-03-06T03:07:45.537Z,84.47
2023-03-06T03:10:14.286Z,84.96
2023-03-06T03:12:42.832Z,84.55
2023-03-06T03:15:12.658Z,86.03
2023-03-06T03:17:41.932Z,84.78
2023-03-06T03:20:13.940Z,84.79
2023-03-06T03:22:41.778Z,84.13
2023-03-06T03:25:10.423Z,84.26
2023-03-06T03:27:38.145Z,83.73
2023-03-06T03:30:06.963Z,84.65
2023-03-06T03:32:36.130Z,85.84
2023-03-06T03:35:04.411Z,84.35
2023-03-06T03:37:32.192Z,83.69
2023-03-06T03:40:00.363Z,83.15
2023-03-06T03:42:28.097Z,83.52
2023-03-06T03:45:05.412Z,84.17
2023-03-06T03:47:33.148Z,85.33
2023-03-06T03:50:02.212Z,84.53
2023-03-06T03:52:29.946Z,83.71
2023-03-06T03:54:58.113Z,83.69
2023-03-06T03:57:25.907Z,83.06
2023-03-06T03:59:53.785Z,82.75
2023-03-06T04:02:22.619Z,84.01
2023-03-06T04:04:50.907Z,84.51
2023-03-06T04:07:20.244Z,84.34
2023-03-06T04:09:49.158Z,85.72
2023-03-06T04:12:16.836Z,85.59
2023-03-06T04:14:44.574Z,84.48
2023-03-06T04:17:12.230Z,85.23
2023-03-06T04:19:39.978Z,84.07
2023-03-06T04:22:07.680Z,83.28
2023-03-06T04:24:36.799Z,83.83
2023-03-06T04:27:04.607Z,84.45
2023-03-06T04:29:32.766Z,84.63
2023-03-06T04:32:00.599Z,84.64
2023-03-06T04:34:28.304Z,83.70
2023-03-06T04:36:56.051Z,82.96
2023-03-06T04:39:23.739Z,84.11
2023-03-06T04:41:53.161Z,83.89
2023-03-06T04:44:21.428Z,84.05
2023-03-06T04:46:49.457Z,84.44
2023-03-06T04:49:17.152Z,84.54
2023-03-06T04:51:45.230Z,84.78
2023-03-06T04:54:13.257Z,85.26
2023-03-06T04:56:41.126Z,84.13
2023-03-06T04:59:10.335Z,84.10
2023-03-06T05:01:38.352Z,85.05
2023-03-06T05:04:08.181Z,85.45
2023-03-06T05:06:35.865Z,84.66
2023-03-06T05:09:03.567Z,84.44
2023-03-06T05:11:31.483Z,85.05
2023-03-06T05:13:59.491Z,86.04
2023-03-06T05:16:28.696Z,87.56
2023-03-06T05:18:56.459Z,87.74
2023-03-06T05:21:24.236Z,87.78
2023-03-06T05:23:51.892Z,87.78
2023-03-06T05:26:19.956Z,87.32
2023-03-06T05:28:47.711Z,87.59
2023-03-06T05:31:15.509Z,87.00
2023-03-06T05:33:47.110Z,86.24
2023-03-06T05:36:14.786Z,86.09
2023-03-06T05:38:43.764Z,85.57
2023-03-06T05:41:12.871Z,85.34
2023-03-06T05:43:40.666Z,86.61
2023-03-06T05:46:09.462Z,87.00
2023-03-06T05:48:37.512Z,87.24
2023-03-06T05:51:07.550Z,87.17
2023-03-06T05:53:35.234Z,87.55
2023-03-06T05:56:05.638Z,88.10
2023-03-06T05:58:34.725Z,88.49
2023-03-06T06:01:10.119Z,87.51
2023-03-06T06:03:38.527Z,87.04
2023-03-06T06:06:12.071Z,86.39
2023-03-06T06:08:40.501Z,86.89
2023-03-06T06:11:09.832Z,88.61
2023-03-06T06:13:38.206Z,89.83
2023-03-06T06:16:09.848Z,89.19
2023-03-06T06:18:40.626Z,88.00
2023-03-06T06:21:12.494Z,87.99
2023-03-06T06:23:40.222Z,87.33
2023-03-06T06:26:09.763Z,87.61
2023-03-06T06:28:37.598Z,87.43
2023-03-06T06:31:09.939Z,88.40
2023-03-06T06:33:37.782Z,88.10
2023-03-06T06:36:06.181Z,86.81
2023-03-06T06:38:35.545Z,87.53
2023-03-06T06:41:33.484Z,87.35
2023-03-06T06:43:52.431Z,86.29
2023-03-06T06:47:02.656Z,86.11
2023-03-06T06:49:08.610Z,84.71
2023-03-06T06:51:37.423Z,85.11
2023-03-06T06:54:06.744Z,85.86
2023-03-06T06:56:34.482Z,84.79
2023-03-06T06:59:16.010Z,85.85
2023-03-06T07:01:45.012Z,85.49
2023-03-06T07:04:13.777Z,85.83
2023-03-06T07:06:41.810Z,86.28
2023-03-06T07:09:11.207Z,86.02
2023-03-06T07:11:39.014Z,86.59
2023-03-06T07:14:06.936Z,86.21
2023-03-06T07:16:35.988Z,86.75
2023-03-06T07:19:04.427Z,86.22
2023-03-06T07:21:32.571Z,85.19
2023-03-06T07:24:00.812Z,86.50
2023-03-06T07:26:32.782Z,86.97
2023-03-06T07:29:05.386Z,86.93
2023-03-06T07:31:33.357Z,87.30
2023-03-06T07:34:03.859Z,85.33
2023-03-06T07:36:33.428Z,84.92
2023-03-06T07:39:01.505Z,85.27
2023-03-06T07:41:30.706Z,85.63
2023-03-06T07:43:58.653Z,86.35
2023-03-06T07:46:27.414Z,85.23
2023-03-06T07:48:55.409Z,84.88
2023-03-06T07:51:23.403Z,83.77
2023-03-06T07:53:51.289Z,85.06
2023-03-06T07:59:16.014Z,82.89
2023-03-06T08:01:43.948Z,77.60
2023-03-06T08:04:11.889Z,74.00
2023-03-06T08:06:39.709Z,75.53
2023-03-06T08:09:09.870Z,74.24
2023-03-06T08:11:37.649Z,69.44
2023-03-06T08:14:05.945Z,69.21
2023-03-06T08:16:35.153Z,61.45
2023-03-06T08:19:02.980Z,61.51
2023-03-06T08:21:31.035Z,59.58
2023-03-06T08:23:59.125Z,62.81
2023-03-06T08:26:28.972Z,63.00
2023-03-06T08:28:58.889Z,62.29
2023-03-06T08:31:32.762Z,58.61
2023-03-06T08:34:05.153Z,57.46
2023-03-06T08:36:33.135Z,57.21
2023-03-06T08:39:01.288Z,52.68
2023-03-06T08:41:29.413Z,53.52
2023-03-06T08:43:57.206Z,53.73
2023-03-06T08:46:26.956Z,53.75
2023-03-06T08:48:54.758Z,52.37
2023-03-06T08:51:24.684Z,59.43
2023-03-06T08:53:53.525Z,63.11
2023-03-06T08:56:23.111Z,68.31
2023-03-06T08:58:51.633Z,71.73
2023-03-06T09:01:22.463Z,69.76
2023-03-06T09:03:50.693Z,72.53
2023-03-06T09:06:18.596Z,74.06
2023-03-06T09:08:47.698Z,72.93
2023-03-06T09:11:16.765Z,74.41
2023-03-06T09:13:45.098Z,73.09
2023-03-06T09:16:13.345Z,73.13
2023-03-06T09:18:43.666Z,72.23
2023-03-06T09:21:11.612Z,73.08
2023-03-06T09:23:40.448Z,74.54
2023-03-06T09:26:09.792Z,75.70
2023-03-06T09:28:39.214Z,75.31
2023-03-06T09:31:09.598Z,76.94
2023-03-06T09:33:37.888Z,74.68
2023-03-06T09:36:07.410Z,74.23
2023-03-06T09:38:36.211Z,73.21
2023-03-06T09:41:11.468Z,73.16
2023-03-06T09:43:44.853Z,73.24
2023-03-06T09:46:21.366Z,75.35
2023-03-06T09:49:04.515Z,76.44
2023-03-06T09:51:46.164Z,74.33
2023-03-06T09:54:15.149Z,73.25
2023-03-06T09:56:48.889Z,75.55
2023-03-06T09:59:21.657Z,75.11
2023-03-06T10:02:00.054Z,75.64
2023-03-06T10:04:37.239Z,74.57
2023-03-06T10:07:14.408Z,74.80
2023-03-06T10:09:47.792Z,74.19
2023-03-06T10:12:24.779Z,76.14
2023-03-06T10:15:14.970Z,74.54
2023-03-06T10:17:44.428Z,75.13
2023-03-06T10:20:20.807Z,75.44
2023-03-06T10:23:20.798Z,79.92
2023-03-06T10:25:58.159Z,78.42
2023-03-06T10:28:30.801Z,79.56
2023-03-06T10:31:06.992Z,80.24
2023-03-06T10:33:48.079Z,79.86
2023-03-06T10:36:17.458Z,80.06
2023-03-06T10:38:48.492Z,79.97
2023-03-06T10:41:26.059Z,80.82
2023-03-06T10:44:20.001Z,77.40
2023-03-06T10:46:51.602Z,74.93
2023-03-06T10:49:32.688Z,75.54
2023-03-06T10:52:03.392Z,76.51
2023-03-06T10:54:33.387Z,74.89
2023-03-06T10:57:19.756Z,76.59
2023-03-06T10:59:55.474Z,76.71
2023-03-06T11:02:31.706Z,76.98
2023-03-06T11:05:01.036Z,75.84
2023-03-06T11:07:30.160Z,74.51
2023-03-06T11:10:18.471Z,75.32
2023-03-06T11:12:59.642Z,74.42
2023-03-06T11:15:28.489Z,71.39
2023-03-06T11:18:00.374Z,70.21
2023-03-06T11:20:44.627Z,70.22
2023-03-06T11:23:18.939Z,69.16
2023-03-06T11:25:50.343Z,70.07
2023-03-06T11:28:23.935Z,67.05
2023-03-06T11:30:55.535Z,65.66
2023-03-06T11:33:31.526Z,67.31
2023-03-06T11:36:05.030Z,68.21
2023-03-06T11:38:43.166Z,65.72
2023-03-06T11:41:20.178Z,67.22
2023-03-06T11:43:54.293Z,66.29
2023-03-06T11:46:24.898Z,66.01
2023-03-06T11:48:59.303Z,65.52
2023-03-06T11:51:31.324Z,67.32
2023-03-06T11:54:00.855Z,67.56
2023-03-06T11:56:36.698Z,65.96
2023-03-06T11:59:26.314Z,65.17
2023-03-06T12:02:01.185Z,65.36
2023-03-06T12:04:42.447Z,63.43
2023-03-06T12:07:22.724Z,64.26
2023-03-06T12:09:56.981Z,64.27
2023-03-06T12:12:47.231Z,64.03
2023-03-06T12:15:30.318Z,62.25
2023-03-06T12:18:13.850Z,63.30
2023-03-06T12:20:56.928Z,65.06
2023-03-06T12:23:38.988Z,62.63
2023-03-06T12:26:23.915Z,64.13
2023-03-06T12:29:11.270Z,61.92
2023-03-06T12:31:50.186Z,61.04
2023-03-06T12:34:34.887Z,61.22
2023-03-06T12:37:16.407Z,62.91
2023-03-06T12:40:00.953Z,61.70
2023-03-06T12:42:42.320Z,61.91
2023-03-06T12:45:23.055Z,61.65
2023-03-06T12:47:55.556Z,63.33
2023-03-06T12:50:27.680Z,62.19
2023-03-06T12:52:59.882Z,62.27
2023-03-06T12:55:27.972Z,62.47
2023-03-06T12:57:56.805Z,64.12
2023-03-06T13:01:03.565Z,67.14
2023-03-06T13:03:44.776Z,66.51
2023-03-06T13:06:51.674Z,65.54
2023-03-06T13:09:28.643Z,66.73
2023-03-06T13:12:18.924Z,64.33
2023-03-06T13:14:55.774Z,63.91
2023-03-06T13:17:29.672Z,64.79
2023-03-06T13:20:21.813Z,64.33
2023-03-06T13:22:49.547Z,63.81
2023-03-06T13:25:50.342Z,62.55
2023-03-06T13:28:27.257Z,61.60
2023-03-06T13:30:56.126Z,62.85
2023-03-06T13:33:53.437Z,63.43
2023-03-06T13:36:26.515Z,63.11
2023-03-06T13:39:01.925Z,62.81
2023-03-06T13:42:00.660Z,62.30
2023-03-06T13:44:51.024Z,61.29
2023-03-06T13:48:19.504Z,60.22
2023-03-06T13:50:43.013Z,60.70
2023-03-06T13:53:42.388Z,61.96
2023-03-06T13:56:37.967Z,63.14
2023-03-06T13:59:44.205Z,61.31
2023-03-06T14:02:35.936Z,62.18
2023-03-06T14:05:05.141Z,62.67
2023-03-06T14:07:34.603Z,61.40
2023-03-06T14:10:19.873Z,60.49
2023-03-06T14:13:03.933Z,61.39
2023-03-06T14:15:42.168Z,60.66
2023-03-06T14:18:19.136Z,62.27
2023-03-06T14:20:51.677Z,61.16
2023-03-06T14:23:32.264Z,61.44
2023-03-06T14:26:06.392Z,61.20
2023-03-06T14:28:35.716Z,61.58
2023-03-06T14:31:06.289Z,62.44
2023-03-06T14:33:44.422Z,60.72
2023-03-06T14:36:15.923Z,60.96
2023-03-06T14:38:47.043Z,60.21
2023-03-06T14:41:24.541Z,60.64
2023-03-06T14:43:52.281Z,59.87
2023-03-06T14:46:21.848Z,60.13
2023-03-06T14:48:51.086Z,60.75
2023-03-06T14:51:21.511Z,62.65
2023-03-06T14:53:51.110Z,62.28
2023-03-06T14:56:21.125Z,60.13
2023-03-06T14:58:56.659Z,60.82
2023-03-06T15:01:30.406Z,61.08
2023-03-06T15:04:01.963Z,60.92
2023-03-06T15:06:35.038Z,60.15
2023-03-06T15:09:07.813Z,61.45
2023-03-06T15:11:56.164Z,63.10
2023-03-06T15:14:31.863Z,64.35
2023-03-06T15:17:32.046Z,64.50
2023-03-06T15:20:02.123Z,63.81
2023-03-06T15:22:37.349Z,63.09
2023-03-06T15:25:20.677Z,63.83
2023-03-06T15:27:50.781Z,62.16
2023-03-06T15:30:27.627Z,62.02
2023-03-06T15:33:10.862Z,62.81
2023-03-06T15:35:40.419Z,62.58
2023-03-06T15:38:26.208Z,61.52
2023-03-06T15:40:58.030Z,61.28
2023-03-06T15:43:26.980Z,60.94
2023-03-06T15:45:59.443Z,59.45
2023-03-06T15:48:28.489Z,60.96
2023-03-06T15:50:58.701Z,62.02
2023-03-06T15:53:26.547Z,61.45
2023-03-06T15:55:54.526Z,62.96
2023-03-06T15:58:25.064Z,64.66
2023-03-06T16:00:52.842Z,63.37
2023-03-06T16:03:20.911Z,63.91
2023-03-06T16:05:48.923Z,62.34
2023-03-06T16:08:18.023Z,63.92
2023-03-06T16:10:47.463Z,62.60
2023-03-06T16:13:20.344Z,62.93
2023-03-06T16:15:50.879Z,62.68
2023-03-06T16:18:19.723Z,63.43
2023-03-06T16:20:48.050Z,63.82
2023-03-06T16:23:16.421Z,64.79
2023-03-06T16:25:49.930Z,66.07
2023-03-06T16:28:18.130Z,65.82
2023-03-06T16:30:46.545Z,64.10
2023-03-06T16:33:14.965Z,64.10
2023-03-06T16:35:44.498Z,65.28
2023-03-06T16:38:12.334Z,64.41
2023-03-06T16:40:42.554Z,63.50
2023-03-06T16:43:16.025Z,63.80
2023-03-06T16:45:44.746Z,65.91
2023-03-06T16:48:17.213Z,64.41
2023-03-06T16:50:45.436Z,65.66
2023-03-06T16:53:13.180Z,66.26
2023-03-06T16:55:41.017Z,64.94
2023-03-06T16:58:09.995Z,65.49
2023-03-06T17:00:39.263Z,66.00
2023-03-06T17:03:07.408Z,65.96
2023-03-06T17:05:35.714Z,65.91
2023-03-06T17:08:03.802Z,65.56
2023-03-06T17:10:32.585Z,65.84
2023-03-06T17:13:00.366Z,65.98
2023-03-06T17:15:28.660Z,66.81
2023-03-06T17:17:57.871Z,66.19
2023-03-06T17:20:25.653Z,67.99
2023-03-06T17:22:53.790Z,68.42
2023-03-06T17:25:21.760Z,68.68
2023-03-06T17:27:49.602Z,70.23
2023-03-06T17:30:17.638Z,71.70
2023-03-06T17:32:45.641Z,70.92
2023-03-06T17:35:15.040Z,74.00
2023-03-06T17:37:42.887Z,74.15
2023-03-06T17:40:11.804Z,74.45
2023-03-06T17:42:39.761Z,74.26
2023-03-06T17:45:09.328Z,75.44
2023-03-06T17:47:37.132Z,74.66
2023-03-06T17:50:05.723Z,75.92
2023-03-06T17:52:35.182Z,75.72
2023-03-06T17:55:03.012Z,74.81
2023-03-06T17:57:31.342Z,75.62
2023-03-06T17:59:59.601Z,74.48
2023-03-06T18:02:27.578Z,75.04
2023-03-06T18:04:57.739Z,75.99
2023-03-06T18:07:26.670Z,76.54
2023-03-06T18:09:56.545Z,76.45
2023-03-06T18:12:24.649Z,75.17
2023-03-06T18:14:52.478Z,75.33
2023-03-06T18:17:20.284Z,76.65
2023-03-06T18:19:48.055Z,75.70
2023-03-06T18:22:15.844Z,75.88
2023-03-06T18:24:43.654Z,76.03
2023-03-06T18:27:12.825Z,75.81
2023-03-06T18:29:40.871Z,75.89
2023-03-06T18:32:10.758Z,76.90
2023-03-06T18:34:38.892Z,76.24
2023-03-06T18:37:07.063Z,76.08
2023-03-06T18:39:35.153Z,75.22
2023-03-06T18:42:03.165Z,75.21
2023-03-06T18:44:33.697Z,74.88
2023-03-06T18:47:01.678Z,74.82
2023-03-06T18:49:29.677Z,73.51
2023-03-06T18:51:58.121Z,73.24
2023-03-06T18:54:28.539Z,73.64
2023-03-06T18:56:56.340Z,73.37
2023-03-06T18:59:24.318Z,72.93
2023-03-06T19:01:57.535Z,72.22
2023-03-06T19:04:25.537Z,71.83
2023-03-06T19:06:54.727Z,73.32
2023-03-06T19:09:23.052Z,72.99
2023-03-06T19:11:53.735Z,72.21
2023-03-06T19:14:22.730Z,71.86
2023-03-06T19:16:50.628Z,71.81
2023-03-06T19:19:20.425Z,71.45
2023-03-06T19:21:48.286Z,71.85
2023-03-06T19:24:16.477Z,73.20
2023-03-06T19:26:45.001Z,72.48
2023-03-06T19:29:12.756Z,72.39
2023-03-06T19:31:40.649Z,72.05
2023-03-06T19:34:08.920Z,70.94
2023-03-06T19:36:40.581Z,71.34
2023-03-06T19:39:09.570Z,71.42
2023-03-06T19:41:37.537Z,70.84
2023-03-06T19:44:06.286Z,71.42
2023-03-06T19:46:36.163Z,70.50
2023-03-06T19:49:09.688Z,69.96
2023-03-06T19:51:38.961Z,70.54
2023-03-06T19:54:06.815Z,70.81
2023-03-06T19:56:36.187Z,71.32
2023-03-06T19:59:03.927Z,70.56
2023-03-06T20:01:33.849Z,69.25
2023-03-06T20:04:01.604Z,69.69
2023-03-06T20:06:33.429Z,69.95
2023-03-06T20:09:05.610Z,70.79
2023-03-06T20:11:35.584Z,71.98
2023-03-06T20:14:05.997Z,72.39
2023-03-06T20:16:34.876Z,71.32
2023-03-06T20:19:03.246Z,71.30
2023-03-06T20:21:33.659Z,72.15
2023-03-06T20:24:03.110Z,73.77
2023-03-06T20:26:30.986Z,74.45
2023-03-06T20:28:59.244Z,74.64
2023-03-06T20:31:29.359Z,74.45
2023-03-06T20:33:59.489Z,74.58
2023-03-06T20:36:29.056Z,74.99
2023-03-06T20:38:57.018Z,74.09
2023-03-06T20:41:28.568Z,75.31
2023-03-06T20:43:56.795Z,74.12
2023-03-06T20:46:25.130Z,75.29
2023-03-06T20:48:54.518Z,74.42
2023-03-06T20:51:27.829Z,75.42
2023-03-06T20:53:56.639Z,75.87
2023-03-06T20:56:28.144Z,75.93
2023-03-06T20:58:56.260Z,75.86
2023-03-06T21:01:26.249Z,75.73
2023-03-06T21:03:54.694Z,75.81
2023-03-06T21:06:22.410Z,75.80
2023-03-06T21:08:50.566Z,76.29
2023-03-06T21:11:19.003Z,74.99
2023-03-06T21:13:48.487Z,75.87
2023-03-06T21:16:18.280Z,75.50
2023-03-06T21:18:46.672Z,75.55
2023-03-06T21:21:16.398Z,74.28
2023-03-06T21:23:44.110Z,74.67
2023-03-06T21:26:14.965Z,75.42
2023-03-06T21:28:43.076Z,75.43
2023-03-06T21:31:14.161Z,75.14
2023-03-06T21:33:42.576Z,74.50
2023-03-06T21:36:11.699Z,75.54
2023-03-06T21:38:40.178Z,76.19
2023-03-06T21:41:09.992Z,75.47
2023-03-06T21:43:37.834Z,74.89
2023-03-06T21:46:06.376Z,73.23
2023-03-06T21:48:35.741Z,74.95
2023-03-06T21:51:08.161Z,73.45
2023-03-06T21:53:36.691Z,75.78
2023-03-06T21:56:05.548Z,74.71
2023-03-06T21:58:33.418Z,74.22
2023-03-06T22:01:01.414Z,74.71
2023-03-06T22:03:29.629Z,74.46
2023-03-06T22:06:08.495Z,76.34
2023-03-06T22:08:36.245Z,75.81
2023-03-06T22:11:07.960Z,75.80
2023-03-06T22:13:35.768Z,75.28
2023-03-06T22:16:03.491Z,76.92
2023-03-06T22:18:31.824Z,75.14
2023-03-06T22:21:01.951Z,75.36
2023-03-06T22:23:29.831Z,76.33
2023-03-06T22:26:02.605Z,76.30
2023-03-06T22:28:30.565Z,80.01
2023-03-06T22:31:05.193Z,80.22
2023-03-06T22:33:33.004Z,80.63
2023-03-06T22:36:07.215Z,81.55
2023-03-06T22:38:36.595Z,82.11
2023-03-06T22:41:05.542Z,80.95
2023-03-06T22:43:34.217Z,83.58
2023-03-06T22:46:03.130Z,83.87
2023-03-06T22:48:31.185Z,83.30
2023-03-06T22:51:04.663Z,85.88
2023-03-06T22:53:32.626Z,90.84
2023-03-06T22:56:00.858Z,90.74
2023-03-06T22:58:34.388Z,90.60
2023-03-06T23:01:06.490Z,89.47
2023-03-06T23:03:34.311Z,92.10
2023-03-06T23:06:06.959Z,92.63
2023-03-06T23:08:34.762Z,93.54
2023-03-06T23:11:02.945Z,94.98
2023-03-06T23:13:31.123Z,93.29
2023-03-06T23:16:02.185Z,93.67
2023-03-06T23:18:30.007Z,94.01
2023-03-06T23:20:59.055Z,94.89
2023-03-06T23:23:28.143Z,97.13
2023-03-06T23:26:00.139Z,97.06
2023-03-06T23:28:28.459Z,95.82
2023-03-06T23:30:56.191Z,98.43
2023-03-06T23:33:24.159Z,97.79
2023-03-06T23:35:52.184Z,96.59
2023-03-06T23:38:22.036Z,97.68
2023-03-06T23:40:51.340Z,97.74
2023-03-06T23:43:19.003Z,98.41
2023-03-06T23:45:53.636Z,98.49
2023-03-06T23:48:21.602Z,98.10
2023-03-06T23:50:49.535Z,99.50
2023-03-06T23:53:18.255Z,100.00
2023-03-06T23:55:49.265Z,97.96
2023-03-06T23:58:19.929Z,96.85
